sensor_id;sensor_type;location;lat;lon;timestamp;pressure;altitude;pressure_sealevel;temperature;humidity
70314;BME280;71040;47.526;18.986;2024-01-15T00:01:04;98570.44;;;9.86;55.64
70314;BME280;71040;47.526;18.986;2024-01-15T00:06:04;98561.56;;;9.74;55.67
70314;BME280;71040;47.526;18.986;2024-01-15T00:11:05;98563.47;;;10.01;54.99
70314;BME280;71040;47.526;18.986;2024-01-15T00:16:10;98545.31;;;10.55;53.15
70314;BME280;71040;47.526;18.986;2024-01-15T00:21:15;98529.44;;;10.58;52.85
70314;BME280;71040;47.526;18.986;2024-01-15T00:26:18;98510.13;;;10.19;53.78
70314;BME280;71040;47.526;18.986;2024-01-15T00:31:18;98499.78;;;9.89;54.68
70314;BME280;71040;47.526;18.986;2024-01-15T00:36:21;98500.25;;;9.67;55.28
70314;BME280;71040;47.526;18.986;2024-01-15T00:41:22;98493.59;;;9.48;55.50
70314;BME280;71040;47.526;18.986;2024-01-15T00:46:22;98496.69;;;9.82;55.05
70314;BME280;71040;47.526;18.986;2024-01-15T00:51:23;98493.28;;;10.37;53.86
70314;BME280;71040;47.526;18.986;2024-01-15T00:56:23;98485.38;;;10.78;52.62
70314;BME280;71040;47.526;18.986;2024-01-15T01:01:24;98482.66;;;11.07;51.95
70314;BME280;71040;47.526;18.986;2024-01-15T01:06:24;98484.94;;;11.24;51.81
70314;BME280;71040;47.526;18.986;2024-01-15T01:11:25;98469.06;;;11.40;51.39
70314;BME280;71040;47.526;18.986;2024-01-15T01:16:25;98466.44;;;11.40;51.18
70314;BME280;71040;47.526;18.986;2024-01-15T01:21:27;98467.94;;;10.79;52.44
70314;BME280;71040;47.526;18.986;2024-01-15T01:26:28;98453.84;;;10.28;53.88
70314;BME280;71040;47.526;18.986;2024-01-15T01:31:29;98456.16;;;9.91;54.78
70314;BME280;71040;47.526;18.986;2024-01-15T01:36:31;98440.97;;;9.69;55.73
70314;BME280;71040;47.526;18.986;2024-01-15T01:41:38;98429.16;;;9.50;55.74
70314;BME280;71040;47.526;18.986;2024-01-15T01:46:40;98412.28;;;9.41;56.29
70314;BME280;71040;47.526;18.986;2024-01-15T01:51:44;98409.69;;;9.96;54.95
70314;BME280;71040;47.526;18.986;2024-01-15T01:56:47;98393.09;;;10.51;53.54
70314;BME280;71040;47.526;18.986;2024-01-15T02:01:49;98391.28;;;10.26;53.87
70314;BME280;71040;47.526;18.986;2024-01-15T02:06:51;98386.78;;;9.87;54.52
70314;BME280;71040;47.526;18.986;2024-01-15T02:11:54;98380.16;;;9.55;55.27
70314;BME280;71040;47.526;18.986;2024-01-15T02:16:54;98378.75;;;9.35;55.94
70314;BME280;71040;47.526;18.986;2024-01-15T02:21:57;98384.25;;;9.30;56.02
70314;BME280;71040;47.526;18.986;2024-01-15T02:26:57;98390.34;;;9.86;55.25
70314;BME280;71040;47.526;18.986;2024-01-15T02:32:04;98381.13;;;10.22;53.95
70314;BME280;71040;47.526;18.986;2024-01-15T02:37:07;98367.41;;;9.91;54.64
70314;BME280;71040;47.526;18.986;2024-01-15T02:42:07;98346.97;;;9.57;55.45
70314;BME280;71040;47.526;18.986;2024-01-15T02:47:08;98369.44;;;9.31;56.10
70314;BME280;71040;47.526;18.986;2024-01-15T02:52:08;98368.03;;;9.25;56.12
70314;BME280;71040;47.526;18.986;2024-01-15T02:57:08;98358.84;;;9.75;55.06
70314;BME280;71040;47.526;18.986;2024-01-15T03:02:11;98334.19;;;10.20;54.00
70314;BME280;71040;47.526;18.986;2024-01-15T03:07:12;98324.78;;;10.57;53.11
70314;BME280;71040;47.526;18.986;2024-01-15T03:12:12;98325.19;;;10.76;52.60
70314;BME280;71040;47.526;18.986;2024-01-15T03:17:15;98315.97;;;10.96;52.08
70314;BME280;71040;47.526;18.986;2024-01-15T03:22:18;98292.25;;;10.99;52.00
70314;BME280;71040;47.526;18.986;2024-01-15T03:27:20;98297.69;;;10.45;52.89
70314;BME280;71040;47.526;18.986;2024-01-15T03:32:23;98307.03;;;9.96;54.20
70314;BME280;71040;47.526;18.986;2024-01-15T03:37:24;98308.56;;;9.59;55.28
70314;BME280;71040;47.526;18.986;2024-01-15T03:42:24;98325.88;;;9.33;55.54
70314;BME280;71040;47.526;18.986;2024-01-15T03:47:26;98342.59;;;9.57;55.64
70314;BME280;71040;47.526;18.986;2024-01-15T03:52:26;98333.47;;;10.04;54.28
70314;BME280;71040;47.526;18.986;2024-01-15T03:57:27;98337.16;;;10.41;53.64
70314;BME280;71040;47.526;18.986;2024-01-15T04:02:27;98336.47;;;10.64;52.99
70314;BME280;71040;47.526;18.986;2024-01-15T04:07:29;98323.00;;;10.83;52.13
70314;BME280;71040;47.526;18.986;2024-01-15T04:12:32;98302.59;;;10.88;52.11
70314;BME280;71040;47.526;18.986;2024-01-15T04:17:33;98302.81;;;10.98;52.28
70314;BME280;71040;47.526;18.986;2024-01-15T04:22:35;98292.34;;;11.10;51.92
70314;BME280;71040;47.526;18.986;2024-01-15T04:27:35;98307.81;;;11.13;51.82
70314;BME280;71040;47.526;18.986;2024-01-15T04:32:38;98302.38;;;11.16;51.52
70314;BME280;71040;47.526;18.986;2024-01-15T04:37:43;98290.03;;;11.18;51.59
70314;BME280;71040;47.526;18.986;2024-01-15T04:42:46;98289.06;;;11.19;51.81
70314;BME280;71040;47.526;18.986;2024-01-15T04:47:46;98280.91;;;11.24;51.47
70314;BME280;71040;47.526;18.986;2024-01-15T04:52:49;98272.13;;;11.25;51.56
70314;BME280;71040;47.526;18.986;2024-01-15T04:57:52;98281.53;;;11.28;51.69
70314;BME280;71040;47.526;18.986;2024-01-15T05:02:53;98277.88;;;11.30;51.40
70314;BME280;71040;47.526;18.986;2024-01-15T05:07:53;98290.97;;;11.30;51.63
70314;BME280;71040;47.526;18.986;2024-01-15T05:12:53;98293.78;;;11.27;51.41
70314;BME280;71040;47.526;18.986;2024-01-15T05:17:54;98292.09;;;11.26;51.65
70314;BME280;71040;47.526;18.986;2024-01-15T05:22:56;98291.16;;;11.27;51.48
70314;BME280;71040;47.526;18.986;2024-01-15T05:27:57;98285.72;;;11.30;51.30
70314;BME280;71040;47.526;18.986;2024-01-15T05:32:57;98280.50;;;11.30;51.73
70314;BME280;71040;47.526;18.986;2024-01-15T05:38:00;98287.38;;;11.31;51.40
70314;BME280;71040;47.526;18.986;2024-01-15T05:43:01;98288.44;;;11.29;51.60
70314;BME280;71040;47.526;18.986;2024-01-15T05:48:01;98303.31;;;11.28;51.67
70314;BME280;71040;47.526;18.986;2024-01-15T05:53:04;98287.25;;;11.33;51.60
70314;BME280;71040;47.526;18.986;2024-01-15T05:58:04;98275.13;;;11.32;51.73
70314;BME280;71040;47.526;18.986;2024-01-15T06:03:05;98270.63;;;11.34;51.47
70314;BME280;71040;47.526;18.986;2024-01-15T06:08:08;98264.44;;;11.35;51.51
70314;BME280;71040;47.526;18.986;2024-01-15T06:13:08;98269.06;;;11.31;51.52
70314;BME280;71040;47.526;18.986;2024-01-15T06:18:13;98277.88;;;11.30;51.65
70314;BME280;71040;47.526;18.986;2024-01-15T06:23:14;98277.75;;;11.32;51.78
70314;BME280;71040;47.526;18.986;2024-01-15T06:28:16;98280.97;;;11.35;51.76
70314;BME280;71040;47.526;18.986;2024-01-15T06:33:19;98280.16;;;11.35;51.62
70314;BME280;71040;47.526;18.986;2024-01-15T06:38:19;98277.44;;;11.36;51.86
70314;BME280;71040;47.526;18.986;2024-01-15T06:43:24;98286.75;;;11.28;51.63
70314;BME280;71040;47.526;18.986;2024-01-15T06:48:25;98296.69;;;11.35;51.57
70314;BME280;71040;47.526;18.986;2024-01-15T06:53:30;98287.69;;;11.39;51.71
70314;BME280;71040;47.526;18.986;2024-01-15T06:58:33;98284.03;;;11.42;51.55
70314;BME280;71040;47.526;18.986;2024-01-15T07:03:34;98290.88;;;11.43;51.61
70314;BME280;71040;47.526;18.986;2024-01-15T07:08:34;98293.19;;;11.47;51.65
70314;BME280;71040;47.526;18.986;2024-01-15T07:13:36;98296.03;;;11.44;51.72
70314;BME280;71040;47.526;18.986;2024-01-15T07:18:37;98286.38;;;11.45;51.74
70314;BME280;71040;47.526;18.986;2024-01-15T07:23:38;98296.75;;;11.46;51.89
70314;BME280;71040;47.526;18.986;2024-01-15T07:28:38;98306.38;;;11.46;51.93
70314;BME280;71040;47.526;18.986;2024-01-15T07:33:41;98314.88;;;11.49;51.90
70314;BME280;71040;47.526;18.986;2024-01-15T07:38:41;98319.16;;;11.50;51.87
70314;BME280;71040;47.526;18.986;2024-01-15T07:43:46;98335.59;;;11.52;51.87
70314;BME280;71040;47.526;18.986;2024-01-15T07:48:46;98349.28;;;11.56;51.82
70314;BME280;71040;47.526;18.986;2024-01-15T07:53:47;98328.97;;;11.59;51.78
70314;BME280;71040;47.526;18.986;2024-01-15T07:58:47;98330.44;;;11.64;51.99
70314;BME280;71040;47.526;18.986;2024-01-15T08:03:50;98339.22;;;11.63;51.73
70314;BME280;71040;47.526;18.986;2024-01-15T08:08:50;98339.22;;;11.63;52.02
70314;BME280;71040;47.526;18.986;2024-01-15T08:13:59;98320.66;;;11.66;52.02
70314;BME280;71040;47.526;18.986;2024-01-15T08:18:59;98311.88;;;11.67;52.18
70314;BME280;71040;47.526;18.986;2024-01-15T08:24:01;98317.94;;;11.67;52.06
70314;BME280;71040;47.526;18.986;2024-01-15T08:29:02;98330.91;;;11.69;52.16
70314;BME280;71040;47.526;18.986;2024-01-15T08:34:02;98327.34;;;11.70;52.07
70314;BME280;71040;47.526;18.986;2024-01-15T08:39:05;98330.91;;;11.69;52.44
70314;BME280;71040;47.526;18.986;2024-01-15T08:44:09;98335.41;;;11.67;52.41
70314;BME280;71040;47.526;18.986;2024-01-15T08:49:09;98333.63;;;11.67;52.18
70314;BME280;71040;47.526;18.986;2024-01-15T08:54:12;98341.00;;;11.62;52.30
70314;BME280;71040;47.526;18.986;2024-01-15T08:59:12;98342.56;;;11.65;52.52
70314;BME280;71040;47.526;18.986;2024-01-15T09:04:13;98350.44;;;11.65;52.17
70314;BME280;71040;47.526;18.986;2024-01-15T09:09:20;98353.97;;;11.64;52.35
70314;BME280;71040;47.526;18.986;2024-01-15T09:14:20;98356.59;;;11.64;52.36
70314;BME280;71040;47.526;18.986;2024-01-15T09:19:22;98333.63;;;11.67;52.54
70314;BME280;71040;47.526;18.986;2024-01-15T09:24:25;98328.94;;;11.72;52.29
70314;BME280;71040;47.526;18.986;2024-01-15T09:29:25;98309.66;;;11.73;52.72
70314;BME280;71040;47.526;18.986;2024-01-15T09:34:31;98320.44;;;11.81;52.20
70314;BME280;71040;47.526;18.986;2024-01-15T09:39:33;98314.25;;;11.82;52.34
70314;BME280;71040;47.526;18.986;2024-01-15T09:44:34;98317.38;;;11.87;51.96
70314;BME280;71040;47.526;18.986;2024-01-15T09:49:35;98307.84;;;11.86;52.24
70314;BME280;71040;47.526;18.986;2024-01-15T09:54:35;98304.16;;;11.89;52.05
70314;BME280;71040;47.526;18.986;2024-01-15T09:59:37;98310.38;;;11.88;52.13
70314;BME280;71040;47.526;18.986;2024-01-15T10:04:38;98301.44;;;11.90;52.10
70314;BME280;71040;47.526;18.986;2024-01-15T10:09:39;98278.81;;;11.89;52.30
70314;BME280;71040;47.526;18.986;2024-01-15T10:14:42;98272.53;;;11.92;52.31
70314;BME280;71040;47.526;18.986;2024-01-15T10:19:45;98263.59;;;11.94;52.08
70314;BME280;71040;47.526;18.986;2024-01-15T10:24:46;98257.75;;;11.91;52.32
70314;BME280;71040;47.526;18.986;2024-01-15T10:29:47;98245.28;;;11.94;52.32
70314;BME280;71040;47.526;18.986;2024-01-15T10:34:52;98245.16;;;11.96;52.00
70314;BME280;71040;47.526;18.986;2024-01-15T10:39:53;98249.47;;;11.97;52.23
70314;BME280;71040;47.526;18.986;2024-01-15T10:44:55;98247.91;;;11.94;52.11
70314;BME280;71040;47.526;18.986;2024-01-15T10:49:59;98247.91;;;11.94;52.00
70314;BME280;71040;47.526;18.986;2024-01-15T10:55:01;98245.50;;;11.91;52.29
70314;BME280;71040;47.526;18.986;2024-01-15T11:00:06;98245.59;;;11.90;52.29
70314;BME280;71040;47.526;18.986;2024-01-15T11:05:07;98262.88;;;11.92;52.49
70314;BME280;71040;47.526;18.986;2024-01-15T11:10:39;98265.38;;;11.94;52.50
70314;BME280;71040;47.526;18.986;2024-01-15T11:15:58;98252.91;;;11.98;52.31
70314;BME280;71040;47.526;18.986;2024-01-15T11:31:29;98247.56;;;11.99;52.46
70314;BME280;71040;47.526;18.986;2024-01-15T11:42:03;98226.63;;;11.99;52.36
70314;BME280;71040;47.526;18.986;2024-01-15T11:47:06;98223.03;;;12.00;52.24
70314;BME280;71040;47.526;18.986;2024-01-15T11:52:07;98211.50;;;12.03;52.23
70314;BME280;71040;47.526;18.986;2024-01-15T11:57:20;98187.91;;;12.03;52.12
70314;BME280;71040;47.526;18.986;2024-01-15T12:02:26;98204.69;;;12.00;52.30
70314;BME280;71040;47.526;18.986;2024-01-15T12:07:31;98190.53;;;12.03;52.36
70314;BME280;71040;47.526;18.986;2024-01-15T12:13:12;98196.06;;;12.11;52.30
70314;BME280;71040;47.526;18.986;2024-01-15T12:18:18;98192.59;;;12.10;52.18
70314;BME280;71040;47.526;18.986;2024-01-15T12:23:21;98189.97;;;12.10;52.17
70314;BME280;71040;47.526;18.986;2024-01-15T12:28:27;98176.63;;;12.13;52.41
70314;BME280;71040;47.526;18.986;2024-01-15T12:33:30;98155.78;;;12.12;52.09
70314;BME280;71040;47.526;18.986;2024-01-15T12:38:31;98165.81;;;12.18;52.06
70314;BME280;71040;47.526;18.986;2024-01-15T12:43:32;98168.31;;;12.19;52.06
70314;BME280;71040;47.526;18.986;2024-01-15T12:48:32;98164.97;;;12.17;52.26
70314;BME280;71040;47.526;18.986;2024-01-15T12:53:35;98157.94;;;12.18;52.06
70314;BME280;71040;47.526;18.986;2024-01-15T12:58:36;98151.66;;;12.20;52.01
70314;BME280;71040;47.526;18.986;2024-01-15T13:03:36;98144.63;;;12.21;52.05
70314;BME280;71040;47.526;18.986;2024-01-15T13:08:37;98148.09;;;12.21;52.04
70314;BME280;71040;47.526;18.986;2024-01-15T13:13:39;98168.94;;;12.23;52.04
70314;BME280;71040;47.526;18.986;2024-01-15T13:18:40;98175.13;;;12.22;52.10
70314;BME280;71040;47.526;18.986;2024-01-15T13:23:45;98171.66;;;12.21;52.19
70314;BME280;71040;47.526;18.986;2024-01-15T13:28:45;98155.22;;;12.19;51.96
70314;BME280;71040;47.526;18.986;2024-01-15T13:33:45;98164.25;;;12.15;52.13
70314;BME280;71040;47.526;18.986;2024-01-15T13:38:46;98173.66;;;12.18;52.11
70314;BME280;71040;47.526;18.986;2024-01-15T13:43:49;98177.13;;;12.18;52.29
70314;BME280;71040;47.526;18.986;2024-01-15T13:48:49;98170.22;;;12.17;52.20
70314;BME280;71040;47.526;18.986;2024-01-15T13:53:52;98170.00;;;12.20;52.19
70314;BME280;71040;47.526;18.986;2024-01-15T13:58:55;98168.78;;;12.24;52.12
70314;BME280;71040;47.526;18.986;2024-01-15T14:03:55;98172.34;;;12.23;52.04
70314;BME280;71040;47.526;18.986;2024-01-15T14:09:00;98164.63;;;12.22;52.27
70314;BME280;71040;47.526;18.986;2024-01-15T14:14:04;98169.50;;;12.26;52.27
70314;BME280;71040;47.526;18.986;2024-01-15T14:19:05;98185.84;;;12.30;51.99
70314;BME280;71040;47.526;18.986;2024-01-15T14:24:06;98175.47;;;12.28;52.10
70314;BME280;71040;47.526;18.986;2024-01-15T14:29:07;98173.34;;;12.33;52.05
70314;BME280;71040;47.526;18.986;2024-01-15T14:34:07;98176.81;;;12.34;52.01
70314;BME280;71040;47.526;18.986;2024-01-15T14:39:08;98179.53;;;12.32;51.82
70314;BME280;71040;47.526;18.986;2024-01-15T14:44:10;98193.31;;;12.34;52.08
70314;BME280;71040;47.526;18.986;2024-01-15T14:49:12;98187.97;;;12.36;52.08
70314;BME280;71040;47.526;18.986;2024-01-15T14:54:12;98191.44;;;12.37;51.78
70314;BME280;71040;47.526;18.986;2024-01-15T14:59:13;98187.28;;;12.34;51.90
70314;BME280;71040;47.526;18.986;2024-01-15T15:04:14;98187.84;;;12.38;51.79
70314;BME280;71040;47.526;18.986;2024-01-15T15:09:19;98197.41;;;12.39;51.90
70314;BME280;71040;47.526;18.986;2024-01-15T15:14:24;98181.78;;;12.37;51.70
70314;BME280;71040;47.526;18.986;2024-01-15T15:19:27;98182.63;;;12.38;52.10
70314;BME280;71040;47.526;18.986;2024-01-15T15:24:27;98179.28;;;12.36;51.78
70314;BME280;71040;47.526;18.986;2024-01-15T15:29:34;98169.75;;;12.34;51.98
70314;BME280;71040;47.526;18.986;2024-01-15T15:34:41;98171.41;;;12.36;51.84
70314;BME280;71040;47.526;18.986;2024-01-15T15:39:44;98161.19;;;12.32;51.97
70314;BME280;71040;47.526;18.986;2024-01-15T15:44:44;98158.91;;;12.39;51.79
70314;BME280;71040;47.526;18.986;2024-01-15T15:49:49;98171.91;;;12.41;51.69
70314;BME280;71040;47.526;18.986;2024-01-15T15:54:49;98167.63;;;12.40;51.77
70314;BME280;71040;47.526;18.986;2024-01-15T15:59:52;98170.25;;;12.40;51.86
70314;BME280;71040;47.526;18.986;2024-01-15T16:04:59;98193.22;;;12.36;51.96
70314;BME280;71040;47.526;18.986;2024-01-15T16:10:00;98199.06;;;12.40;51.85
70314;BME280;71040;47.526;18.986;2024-01-15T16:15:03;98200.84;;;12.39;51.87
70314;BME280;71040;47.526;18.986;2024-01-15T16:20:16;98189.31;;;12.42;52.17
70314;BME280;71040;47.526;18.986;2024-01-15T16:25:17;98191.94;;;12.42;51.85
70314;BME280;71040;47.526;18.986;2024-01-15T16:30:18;98196.44;;;12.40;51.96
70314;BME280;71040;47.526;18.986;2024-01-15T16:35:21;98204.19;;;12.41;51.68
70314;BME280;71040;47.526;18.986;2024-01-15T16:40:23;98208.59;;;12.41;51.68
70314;BME280;71040;47.526;18.986;2024-01-15T16:45:26;98216.47;;;12.41;51.85
70314;BME280;71040;47.526;18.986;2024-01-15T16:50:32;98230.63;;;12.38;51.87
70314;BME280;71040;47.526;18.986;2024-01-15T16:55:32;98232.53;;;12.36;51.77
70314;BME280;71040;47.526;18.986;2024-01-15T17:00:32;98233.25;;;12.38;51.73
70314;BME280;71040;47.526;18.986;2024-01-15T17:05:33;98248.97;;;12.38;51.94
70314;BME280;71040;47.526;18.986;2024-01-15T17:10:33;98249.19;;;12.35;51.92
70314;BME280;71040;47.526;18.986;2024-01-15T17:15:34;98257.78;;;12.37;52.03
70314;BME280;71040;47.526;18.986;2024-01-15T17:20:34;98257.56;;;12.40;51.78
70314;BME280;71040;47.526;18.986;2024-01-15T17:25:35;98242.66;;;12.41;51.85
70314;BME280;71040;47.526;18.986;2024-01-15T17:30:40;98255.03;;;12.39;51.84
70314;BME280;71040;47.526;18.986;2024-01-15T17:35:52;98250.41;;;12.42;51.75
70314;BME280;71040;47.526;18.986;2024-01-15T17:40:53;98225.28;;;12.40;51.68
70314;BME280;71040;47.526;18.986;2024-01-15T17:45:53;98235.75;;;12.40;51.87
70314;BME280;71040;47.526;18.986;2024-01-15T17:51:00;98236.34;;;12.32;51.91
70314;BME280;71040;47.526;18.986;2024-01-15T17:56:01;98245.50;;;12.38;51.95
70314;BME280;71040;47.526;18.986;2024-01-15T18:01:01;98241.00;;;12.40;51.56
70314;BME280;71040;47.526;18.986;2024-01-15T18:06:02;98233.13;;;12.40;51.77
70314;BME280;71040;47.526;18.986;2024-01-15T18:11:08;98248.97;;;12.38;51.78
70314;BME280;71040;47.526;18.986;2024-01-15T18:16:14;98261.25;;;12.38;51.78
70314;BME280;71040;47.526;18.986;2024-01-15T18:21:19;98257.66;;;12.39;51.79
70314;BME280;71040;47.526;18.986;2024-01-15T18:26:19;98240.16;;;12.39;51.75
70314;BME280;71040;47.526;18.986;2024-01-15T18:31:35;98233.03;;;12.41;51.54
70314;BME280;71040;47.526;18.986;2024-01-15T18:36:38;98262.69;;;12.42;51.63
70314;BME280;71040;47.526;18.986;2024-01-15T18:41:42;98288.78;;;12.43;51.59
70314;BME280;71040;47.526;18.986;2024-01-15T18:46:42;98304.25;;;12.46;51.66
70314;BME280;71040;47.526;18.986;2024-01-15T18:51:48;98311.06;;;12.49;51.63
70314;BME280;71040;47.526;18.986;2024-01-15T18:56:51;98310.00;;;12.51;51.45
70314;BME280;71040;47.526;18.986;2024-01-15T19:01:51;98314.91;;;12.56;51.34
70314;BME280;71040;47.526;18.986;2024-01-15T19:06:52;98322.78;;;12.56;51.68
70314;BME280;71040;47.526;18.986;2024-01-15T19:11:52;98325.97;;;12.59;51.43
70314;BME280;71040;47.526;18.986;2024-01-15T19:16:55;98298.94;;;12.59;51.38
70314;BME280;71040;47.526;18.986;2024-01-15T19:21:55;98315.59;;;12.58;51.30
70314;BME280;71040;47.526;18.986;2024-01-15T19:26:55;98324.44;;;12.57;51.44
70314;BME280;71040;47.526;18.986;2024-01-15T19:31:56;98323.84;;;12.53;51.37
70314;BME280;71040;47.526;18.986;2024-01-15T19:37:03;98319.31;;;12.55;51.63
70314;BME280;71040;47.526;18.986;2024-01-15T19:42:04;98302.75;;;12.55;51.52
70314;BME280;71040;47.526;18.986;2024-01-15T19:47:09;98300.03;;;12.56;51.61
70314;BME280;71040;47.526;18.986;2024-01-15T19:52:13;98296.44;;;12.57;51.45
70314;BME280;71040;47.526;18.986;2024-01-15T19:57:16;98315.28;;;12.62;51.38
70314;BME280;71040;47.526;18.986;2024-01-15T20:02:16;98312.97;;;12.58;51.54
70314;BME280;71040;47.526;18.986;2024-01-15T20:07:17;98313.81;;;12.58;51.38
70314;BME280;71040;47.526;18.986;2024-01-15T20:12:17;98339.94;;;12.60;51.43
70314;BME280;71040;47.526;18.986;2024-01-15T20:17:17;98346.84;;;12.61;51.28
70314;BME280;71040;47.526;18.986;2024-01-15T20:22:20;98366.97;;;12.60;51.37
70314;BME280;71040;47.526;18.986;2024-01-15T20:27:21;98394.97;;;12.60;51.47
70314;BME280;71040;47.526;18.986;2024-01-15T20:32:21;98373.16;;;12.59;51.59
70314;BME280;71040;47.526;18.986;2024-01-15T20:37:22;98354.69;;;12.61;51.36
70314;BME280;71040;47.526;18.986;2024-01-15T20:42:22;98387.72;;;12.63;51.34
70314;BME280;71040;47.526;18.986;2024-01-15T20:47:26;98387.72;;;12.63;51.33
70314;BME280;71040;47.526;18.986;2024-01-15T20:52:27;98395.59;;;12.63;51.48
70314;BME280;71040;47.526;18.986;2024-01-15T20:57:35;98375.69;;;12.61;51.47
70314;BME280;71040;47.526;18.986;2024-01-15T21:02:36;98369.59;;;12.60;51.22
70314;BME280;71040;47.526;18.986;2024-01-15T21:07:36;98375.91;;;12.58;51.33
70314;BME280;71040;47.526;18.986;2024-01-15T21:12:37;98394.88;;;12.61;51.57
70314;BME280;71040;47.526;18.986;2024-01-15T21:17:37;98407.03;;;12.62;51.56
70314;BME280;71040;47.526;18.986;2024-01-15T21:22:37;98416.34;;;12.66;51.22
70314;BME280;71040;47.526;18.986;2024-01-15T21:27:38;98424.44;;;12.63;51.04
70314;BME280;71040;47.526;18.986;2024-01-15T21:32:41;98418.97;;;12.66;51.18
70314;BME280;71040;47.526;18.986;2024-01-15T21:37:42;98428.50;;;12.67;51.22
70314;BME280;71040;47.526;18.986;2024-01-15T21:42:43;98435.28;;;12.70;51.03
70314;BME280;71040;47.526;18.986;2024-01-15T21:47:44;98435.28;;;12.70;51.11
70314;BME280;71040;47.526;18.986;2024-01-15T21:52:44;98453.53;;;12.72;51.30
70314;BME280;71040;47.526;18.986;2024-01-15T21:57:44;98468.94;;;12.76;51.19
70314;BME280;71040;47.526;18.986;2024-01-15T22:02:46;98447.97;;;12.76;51.13
70314;BME280;71040;47.526;18.986;2024-01-15T22:07:46;98477.53;;;12.78;51.12
70314;BME280;71040;47.526;18.986;2024-01-15T22:12:47;98472.03;;;12.81;50.89
70314;BME280;71040;47.526;18.986;2024-01-15T22:17:47;98497.78;;;12.76;50.98
70314;BME280;71040;47.526;18.986;2024-01-15T22:22:50;98482.91;;;12.77;51.00
70314;BME280;71040;47.526;18.986;2024-01-15T22:27:51;98495.91;;;12.78;50.94
70314;BME280;71040;47.526;18.986;2024-01-15T22:32:54;98509.94;;;12.77;50.99
70314;BME280;71040;47.526;18.986;2024-01-15T22:37:57;98498.53;;;12.78;51.07
70314;BME280;71040;47.526;18.986;2024-01-15T22:43:01;98497.69;;;12.78;50.83
70314;BME280;71040;47.526;18.986;2024-01-15T22:48:01;98511.84;;;12.75;50.91
70314;BME280;71040;47.526;18.986;2024-01-15T22:53:06;98518.66;;;12.78;51.20
70314;BME280;71040;47.526;18.986;2024-01-15T22:58:06;98521.66;;;12.84;51.01
70314;BME280;71040;47.526;18.986;2024-01-15T23:03:07;98524.28;;;12.84;51.10
70314;BME280;71040;47.526;18.986;2024-01-15T23:08:08;98519.97;;;12.83;51.15
70314;BME280;71040;47.526;18.986;2024-01-15T23:13:10;98523.22;;;12.87;50.86
70314;BME280;71040;47.526;18.986;2024-01-15T23:18:18;98530.16;;;12.88;50.98
70314;BME280;71040;47.526;18.986;2024-01-15T23:23:18;98523.94;;;12.89;50.81
70314;BME280;71040;47.526;18.986;2024-01-15T23:28:21;98533.72;;;12.87;51.01
70314;BME280;71040;47.526;18.986;2024-01-15T23:33:22;98529.41;;;12.86;51.07
70314;BME280;71040;47.526;18.986;2024-01-15T23:38:24;98540.63;;;12.88;50.96
70314;BME280;71040;47.526;18.986;2024-01-15T23:43:25;98549.97;;;12.92;50.80
70314;BME280;71040;47.526;18.986;2024-01-15T23:48:25;98545.66;;;12.91;50.81
70314;BME280;71040;47.526;18.986;2024-01-15T23:53:25;98565.34;;;12.96;50.66
70314;BME280;71040;47.526;18.986;2024-01-15T23:58:26;98576.91;;;12.94;50.84
